createdAt,value
2022-11-12T00:02:14.347Z,101730.61
2022-11-12T00:05:03.755Z,101730.62
2022-11-12T00:07:53.597Z,101728.56
2022-11-12T00:10:42.936Z,101726.85
2022-11-12T00:13:32.283Z,101727.38
2022-11-12T00:16:21.570Z,101733.02
2022-11-12T00:19:11.098Z,101735.77
2022-11-12T00:22:00.573Z,101743.67
2022-11-12T00:24:49.751Z,101740.75
2022-11-12T00:27:39.082Z,101740.92
2022-11-12T00:30:28.749Z,101742.64
2022-11-12T00:33:18.125Z,101736.65
2022-11-12T00:36:08.297Z,101747.23
2022-11-12T00:38:57.912Z,101742.79
2022-11-12T00:41:47.594Z,101744.31
2022-11-12T00:44:37.100Z,101744.81
2022-11-12T00:47:26.478Z,101743.77
2022-11-12T00:50:16.850Z,101744.79
2022-11-12T00:53:06.057Z,101741.71
2022-11-12T00:55:55.386Z,101740.17
2022-11-12T00:58:45.169Z,101734.20
2022-11-12T01:01:34.612Z,101725.64
2022-11-12T01:04:24.271Z,101728.88
2022-11-12T01:07:16.045Z,101732.16
2022-11-12T01:10:06.528Z,101728.04
2022-11-12T01:12:57.168Z,101723.58
2022-11-12T01:15:46.427Z,101720.14
2022-11-12T01:18:36.411Z,101721.70
2022-11-12T01:21:29.827Z,101719.98
2022-11-12T01:24:19.135Z,101722.20
2022-11-12T01:27:08.573Z,101718.27
2022-11-12T01:29:59.567Z,101717.07
2022-11-12T01:32:49.000Z,101719.12
2022-11-12T01:35:38.884Z,101720.48
2022-11-12T01:38:28.461Z,101720.98
2022-11-12T01:41:22.030Z,101721.48
2022-11-12T01:44:14.963Z,101727.81
2022-11-12T01:47:08.524Z,101731.75
2022-11-12T01:50:01.445Z,101733.97
2022-11-12T01:52:55.808Z,101737.05
2022-11-12T01:55:45.430Z,101735.66
2022-11-12T01:58:37.242Z,101738.23
2022-11-12T02:01:27.362Z,101738.05
2022-11-12T02:04:17.649Z,101736.67
2022-11-12T02:07:08.844Z,101731.55
2022-11-12T02:09:59.205Z,101732.22
2022-11-12T02:13:07.801Z,101734.11
2022-11-12T02:15:57.755Z,101736.64
2022-11-12T02:18:46.968Z,101735.26
2022-11-12T02:21:37.538Z,101731.34
2022-11-12T02:24:36.923Z,101728.77
2022-11-12T02:27:28.179Z,101731.67
2022-11-12T02:30:18.036Z,101727.90
2022-11-12T02:33:07.755Z,101729.27
2022-11-12T02:35:57.048Z,101732.19
2022-11-12T02:38:46.592Z,101731.30
2022-11-12T02:41:36.240Z,101735.91
2022-11-12T02:44:25.817Z,101739.14
2022-11-12T02:47:15.390Z,101737.92
2022-11-12T02:50:05.083Z,101742.20
2022-11-12T02:52:54.527Z,101739.63
2022-11-12T02:55:45.244Z,101742.21
2022-11-12T02:58:34.831Z,101737.42
2022-11-12T03:01:24.862Z,101736.04
2022-11-12T03:04:14.624Z,101737.38
2022-11-12T03:07:05.889Z,101739.79
2022-11-12T03:09:55.074Z,101746.09
2022-11-12T03:12:44.322Z,101745.59
2022-11-12T03:15:33.933Z,101747.80
2022-11-12T03:18:27.891Z,101752.23
2022-11-12T03:21:17.786Z,101754.63
2022-11-12T03:24:08.344Z,101757.52
2022-11-12T03:26:58.590Z,101756.16
2022-11-12T03:29:47.938Z,101760.58
2022-11-12T03:32:37.263Z,101760.05
2022-11-12T03:35:27.047Z,101761.23
2022-11-12T03:38:16.471Z,101758.83
2022-11-12T03:41:08.042Z,101762.58
2022-11-12T03:43:57.591Z,101762.91
2022-11-12T03:46:46.860Z,101762.60
2022-11-12T03:49:38.593Z,101759.52
2022-11-12T03:52:28.021Z,101758.48
2022-11-12T03:55:19.217Z,101756.93
2022-11-12T03:58:09.152Z,101755.20
2022-11-12T04:00:58.921Z,101756.05
2022-11-12T04:03:48.680Z,101756.23
2022-11-12T04:06:56.956Z,101757.10
2022-11-12T04:09:46.919Z,101752.11
2022-11-12T04:12:54.463Z,101748.16
2022-11-12T04:15:44.057Z,101747.13
2022-11-12T04:18:51.333Z,101753.98
2022-11-12T04:21:57.672Z,101753.63
2022-11-12T04:25:06.121Z,101748.98
2022-11-12T04:27:55.454Z,101750.36
2022-11-12T04:30:44.934Z,101753.58
2022-11-12T04:33:34.224Z,101746.73
2022-11-12T04:36:23.492Z,101743.96
2022-11-12T04:39:12.714Z,101745.30
2022-11-12T04:42:19.690Z,101744.94
2022-11-12T04:45:11.233Z,101741.33
2022-11-12T04:48:00.596Z,101740.95
2022-11-12T04:50:51.878Z,101742.28
2022-11-12T04:53:41.239Z,101738.11
2022-11-12T04:56:30.517Z,101739.98
2022-11-12T04:59:19.965Z,101738.94
2022-11-12T05:02:09.664Z,101741.96
2022-11-12T05:04:59.326Z,101748.94
2022-11-12T05:07:51.517Z,101747.01
2022-11-12T05:10:41.051Z,101746.30
2022-11-12T05:13:30.543Z,101747.61
2022-11-12T05:16:22.539Z,101749.42
2022-11-12T05:19:15.258Z,101752.27
2022-11-12T05:22:17.384Z,101750.46
2022-11-12T05:25:18.298Z,101746.28
2022-11-12T05:28:08.014Z,101747.07
2022-11-12T05:30:57.230Z,101754.20
2022-11-12T05:33:46.644Z,101756.73
2022-11-12T05:36:37.963Z,101757.23
2022-11-12T05:39:27.468Z,101763.20
2022-11-12T05:42:17.302Z,101768.83
2022-11-12T05:45:08.830Z,101769.50
2022-11-12T05:47:58.416Z,101767.95
2022-11-12T05:51:11.884Z,101764.32
2022-11-12T05:54:00.562Z,101771.14
2022-11-12T05:56:52.485Z,101780.03
2022-11-12T05:59:41.925Z,101779.33
2022-11-12T06:02:31.253Z,101784.95
2022-11-12T06:05:20.673Z,101790.77
2022-11-12T06:08:12.190Z,101788.36
2022-11-12T06:11:01.562Z,101786.27
2022-11-12T06:13:50.743Z,101786.08
2022-11-12T06:16:40.229Z,101785.21
2022-11-12T06:19:30.280Z,101796.83
2022-11-12T06:22:19.736Z,101792.87
2022-11-12T06:25:10.092Z,101792.82
2022-11-12T06:27:59.827Z,101794.34
2022-11-12T06:30:49.294Z,101795.99
2022-11-12T06:33:39.100Z,101796.63
2022-11-12T06:36:28.623Z,101795.92
2022-11-12T06:39:20.803Z,101799.50
2022-11-12T06:42:10.278Z,101796.91
2022-11-12T06:44:59.824Z,101798.92
2022-11-12T06:47:52.760Z,101801.10
2022-11-12T06:50:42.381Z,101807.59
2022-11-12T06:53:34.843Z,101809.98
2022-11-12T06:56:25.889Z,101810.30
2022-11-12T06:59:15.512Z,101811.18
2022-11-12T07:02:05.784Z,101814.95
2022-11-12T07:04:55.382Z,101820.92
2022-11-12T07:07:44.645Z,101826.88
2022-11-12T07:10:34.725Z,101827.19
2022-11-12T07:13:24.304Z,101825.15
2022-11-12T07:16:18.644Z,101827.39
2022-11-12T07:19:08.975Z,101828.09
2022-11-12T07:21:58.767Z,101833.56
2022-11-12T07:24:52.039Z,101832.38
2022-11-12T07:27:41.922Z,101832.91
2022-11-12T07:30:35.896Z,101828.64
2022-11-12T07:33:25.891Z,101830.38
2022-11-12T07:36:17.132Z,101832.61
2022-11-12T07:39:09.085Z,101832.13
2022-11-12T07:41:59.787Z,101838.50
2022-11-12T07:44:50.365Z,101838.16
2022-11-12T07:47:43.278Z,101840.55
2022-11-12T07:50:33.238Z,101842.42
2022-11-12T07:53:26.766Z,101839.38
2022-11-12T07:56:19.405Z,101835.49
2022-11-12T07:59:09.086Z,101830.37
2022-11-12T08:01:58.633Z,101828.86
2022-11-12T08:04:48.242Z,101831.25
2022-11-12T08:07:37.926Z,101832.96
2022-11-12T08:10:27.904Z,101829.89
2022-11-12T08:13:17.471Z,101834.04
2022-11-12T08:16:08.145Z,101834.72
2022-11-12T08:18:57.868Z,101833.21
2022-11-12T08:21:47.549Z,101833.23
2022-11-12T08:24:37.552Z,101838.89
2022-11-12T08:27:27.622Z,101843.14
2022-11-12T08:30:18.249Z,101841.13
2022-11-12T08:33:09.090Z,101841.00
2022-11-12T08:35:58.710Z,101843.48
2022-11-12T08:38:48.863Z,101842.33
2022-11-12T08:41:38.995Z,101847.52
2022-11-12T08:44:28.568Z,101848.76
2022-11-12T08:47:18.250Z,101847.92
2022-11-12T08:50:09.272Z,101848.48
2022-11-12T08:53:04.783Z,101858.23
2022-11-12T08:55:57.447Z,101857.95
2022-11-12T08:58:46.959Z,101855.40
2022-11-12T09:01:36.688Z,101859.52
2022-11-12T09:04:26.968Z,101857.64
2022-11-12T09:07:43.336Z,101861.38
2022-11-12T09:10:26.831Z,101866.63
2022-11-12T09:13:17.520Z,101869.48
2022-11-12T09:16:08.746Z,101867.74
2022-11-12T09:18:58.399Z,101870.13
2022-11-12T09:21:48.089Z,101873.03
2022-11-12T09:24:38.127Z,101875.40
2022-11-12T09:27:31.914Z,101878.29
2022-11-12T09:30:22.272Z,101871.81
2022-11-12T09:33:11.956Z,101869.96
2022-11-12T09:36:04.075Z,101869.31
2022-11-12T09:38:54.293Z,101871.90
2022-11-12T09:41:45.100Z,101869.23
2022-11-12T09:44:37.393Z,101870.80
2022-11-12T09:47:35.452Z,101869.44
2022-11-12T09:50:32.900Z,101873.19
2022-11-12T09:53:30.424Z,101874.55
2022-11-12T09:56:22.591Z,101878.01
2022-11-12T09:59:17.216Z,101879.73
2022-11-12T10:02:24.260Z,101874.80
2022-11-12T10:05:24.283Z,101875.84
2022-11-12T10:08:40.767Z,101879.81
2022-11-12T10:12:16.073Z,101882.95
2022-11-12T10:15:37.030Z,101878.35
2022-11-12T10:19:16.910Z,101876.34
2022-11-12T10:22:20.463Z,101881.02
2022-11-12T10:25:19.218Z,101888.37
2022-11-12T10:28:22.283Z,101892.81
2022-11-12T10:31:14.799Z,101895.06
2022-11-12T10:34:17.415Z,101898.14
2022-11-12T10:37:13.202Z,101894.72
2022-11-12T10:40:22.699Z,101890.62
2022-11-12T10:43:24.931Z,101896.11
2022-11-12T10:46:22.119Z,101893.06
2022-11-12T10:49:25.834Z,101893.95
2022-11-12T10:52:25.492Z,101893.81
2022-11-12T10:55:20.953Z,101896.05
2022-11-12T10:58:21.090Z,101893.82
2022-11-12T11:01:17.747Z,101893.84
2022-11-12T11:04:21.360Z,101891.62
2022-11-12T11:07:24.678Z,101894.03
2022-11-12T11:10:25.598Z,101897.11
2022-11-12T11:13:24.362Z,101894.40
2022-11-12T11:16:17.506Z,101896.80
2022-11-12T11:19:11.376Z,101895.80
2022-11-12T11:22:28.533Z,101890.18
2022-11-12T11:25:20.854Z,101891.04
2022-11-12T11:28:23.492Z,101891.02
2022-11-12T11:31:27.607Z,101890.84
2022-11-12T11:34:28.304Z,101886.36
2022-11-12T11:37:28.804Z,101888.91
2022-11-12T11:40:26.772Z,101891.98
2022-11-12T11:44:13.997Z,101895.41
2022-11-12T11:47:43.997Z,101899.50
2022-11-12T11:51:14.230Z,101904.27
2022-11-12T12:02:25.541Z,101900.33
2022-11-12T12:05:34.583Z,101894.20
2022-11-12T12:09:06.578Z,101890.66
2022-11-12T12:12:37.525Z,101887.95
2022-11-12T12:19:51.162Z,101891.98
2022-11-12T12:22:58.799Z,101886.38
2022-11-12T12:26:09.225Z,101893.05
2022-11-12T12:29:15.754Z,101883.16
2022-11-12T12:36:07.382Z,101880.34
2022-11-12T12:39:06.072Z,101884.66
2022-11-12T12:42:02.415Z,101880.80
2022-11-12T12:45:05.630Z,101880.15
2022-11-12T12:48:13.108Z,101880.18
2022-11-12T12:51:26.289Z,101883.41
2022-11-12T12:54:53.285Z,101880.29
2022-11-12T12:57:43.968Z,101884.06
2022-11-12T13:00:41.707Z,101883.54
2022-11-12T13:03:56.613Z,101881.48
2022-11-12T13:06:56.442Z,101884.60
2022-11-12T13:09:45.898Z,101884.77
2022-11-12T13:13:48.458Z,101885.81
2022-11-12T13:17:01.478Z,101887.53
2022-11-12T13:20:35.456Z,101885.30
2022-11-12T13:24:07.892Z,101889.40
2022-11-12T13:27:00.170Z,101889.09
2022-11-12T13:29:50.534Z,101892.02
2022-11-12T13:32:55.001Z,101896.11
2022-11-12T13:35:44.813Z,101896.94
2022-11-12T13:38:40.170Z,101894.52
2022-11-12T13:41:48.868Z,101896.75
2022-11-12T13:44:39.494Z,101896.05
2022-11-12T13:47:34.571Z,101894.48
2022-11-12T13:50:26.561Z,101895.80
2022-11-12T13:53:26.105Z,101892.02
2022-11-12T13:56:32.744Z,101887.01
2022-11-12T13:59:25.786Z,101883.21
2022-11-12T14:02:23.863Z,101886.79
2022-11-12T14:08:55.892Z,101885.60
2022-11-12T14:11:56.486Z,101890.38
2022-11-12T14:15:05.694Z,101892.25
2022-11-12T14:18:08.001Z,101896.17
2022-11-12T14:20:57.840Z,101898.73
2022-11-12T14:23:49.822Z,101893.73
2022-11-12T14:26:41.952Z,101891.29
2022-11-12T14:29:36.050Z,101899.13
2022-11-12T14:32:27.964Z,101900.27
2022-11-12T14:35:27.371Z,101898.00
2022-11-12T14:38:24.542Z,101896.59
2022-11-12T14:41:23.120Z,101894.15
2022-11-12T14:44:21.867Z,101888.99
2022-11-12T14:47:12.875Z,101889.81
2022-11-12T14:50:07.593Z,101890.13
2022-11-12T14:53:03.047Z,101894.23
2022-11-12T14:55:55.732Z,101898.14
2022-11-12T14:59:00.922Z,101895.73
2022-11-12T15:02:31.455Z,101894.52
2022-11-12T15:05:25.964Z,101897.11
2022-11-12T15:08:35.628Z,101894.59
2022-11-12T15:12:11.304Z,101898.08
2022-11-12T15:15:11.528Z,101896.23
2022-11-12T15:18:04.577Z,101899.16
2022-11-12T15:21:29.775Z,101901.73
2022-11-12T15:24:31.647Z,101899.68
2022-11-12T15:27:41.704Z,101906.49
2022-11-12T15:30:37.357Z,101906.83
2022-11-12T15:33:36.024Z,101909.88
2022-11-12T15:36:27.195Z,101908.34
2022-11-12T15:39:17.079Z,101908.98
2022-11-12T15:42:15.724Z,101913.42
2022-11-12T15:45:12.279Z,101913.60
2022-11-12T15:48:01.878Z,101916.84
2022-11-12T15:50:51.415Z,101914.77
2022-11-12T15:53:40.986Z,101916.13
2022-11-12T15:56:31.019Z,101917.99
2022-11-12T15:59:21.029Z,101919.16
2022-11-12T16:02:14.671Z,101920.87
2022-11-12T16:05:04.119Z,101926.33
2022-11-12T16:07:53.869Z,101934.02
2022-11-12T16:10:45.037Z,101935.37
2022-11-12T16:13:40.247Z,101944.77
2022-11-12T16:16:30.055Z,101944.09
2022-11-12T16:19:21.988Z,101946.67
2022-11-12T16:22:16.573Z,101951.66
2022-11-12T16:25:06.921Z,101955.12
2022-11-12T16:27:59.680Z,101953.42
2022-11-12T16:30:51.863Z,101952.08
2022-11-12T16:38:20.206Z,101956.49
2022-11-12T16:45:33.016Z,101956.73
2022-11-12T16:48:29.626Z,101951.30
2022-11-12T16:51:23.780Z,101946.19
2022-11-12T16:54:13.164Z,101947.40
2022-11-12T16:57:18.614Z,101946.55
2022-11-12T17:00:12.303Z,101947.05
2022-11-12T17:03:01.636Z,101954.06
2022-11-12T17:06:06.437Z,101952.00
2022-11-12T17:09:12.405Z,101949.10
2022-11-12T17:12:03.377Z,101944.63
2022-11-12T17:14:52.602Z,101945.78
2022-11-12T17:17:53.313Z,101939.42
2022-11-12T17:20:52.516Z,101940.56
2022-11-12T17:23:57.172Z,101946.20
2022-11-12T17:26:59.886Z,101943.43
2022-11-12T17:30:05.758Z,101941.02
2022-11-12T17:33:01.515Z,101940.67
2022-11-12T17:35:51.010Z,101948.85
2022-11-12T17:38:45.545Z,101952.43
2022-11-12T17:41:34.911Z,101946.98
2022-11-12T17:44:24.380Z,101941.50
2022-11-12T17:47:13.838Z,101940.96
2022-11-12T17:50:03.634Z,101951.35
2022-11-12T17:52:53.224Z,101951.33
2022-11-12T17:55:43.211Z,101946.00
2022-11-12T17:58:33.227Z,101952.51
2022-11-12T18:01:24.135Z,101943.45
2022-11-12T18:04:13.608Z,101944.95
2022-11-12T18:07:03.560Z,101945.44
2022-11-12T18:09:53.648Z,101941.32
2022-11-12T18:12:43.224Z,101943.36
2022-11-12T18:15:34.642Z,101947.80
2022-11-12T18:18:23.889Z,101946.95
2022-11-12T18:21:13.932Z,101938.73
2022-11-12T18:24:03.424Z,101940.42
2022-11-12T18:26:53.357Z,101940.58
2022-11-12T18:29:43.193Z,101941.73
2022-11-12T18:32:32.927Z,101936.67
2022-11-12T18:35:27.200Z,101938.54
2022-11-12T18:38:19.264Z,101937.64
2022-11-12T18:41:10.928Z,101935.75
2022-11-12T18:44:02.058Z,101939.98
2022-11-12T18:46:51.988Z,101947.16
2022-11-12T18:49:42.123Z,101949.14
2022-11-12T18:52:31.780Z,101951.50
2022-11-12T18:55:21.508Z,101948.05
2022-11-12T18:58:11.033Z,101946.65
2022-11-12T19:01:06.835Z,101946.27
2022-11-12T19:03:57.719Z,101947.96
2022-11-12T19:06:47.507Z,101951.72
2022-11-12T19:09:37.096Z,101946.56
2022-11-12T19:12:26.442Z,101955.44
2022-11-12T19:15:16.276Z,101954.05
2022-11-12T19:18:05.833Z,101947.38
2022-11-12T19:21:00.943Z,101953.36
2022-11-12T19:23:54.011Z,101949.55
2022-11-12T19:26:44.361Z,101954.15
2022-11-12T19:29:34.254Z,101953.14
2022-11-12T19:32:24.058Z,101960.64
2022-11-12T19:35:13.475Z,101962.20
2022-11-12T19:38:10.782Z,101955.55
2022-11-12T19:41:05.933Z,101949.39
2022-11-12T19:44:08.780Z,101957.60
2022-11-12T19:46:58.248Z,101960.20
2022-11-12T19:50:23.460Z,101954.57
2022-11-12T19:53:15.637Z,101969.78
2022-11-12T19:56:13.941Z,101962.91
2022-11-12T19:59:28.561Z,101970.27
2022-11-12T20:02:26.100Z,101961.71
2022-11-12T20:05:22.032Z,101967.23
2022-11-12T20:08:11.936Z,101975.06
2022-11-12T20:11:02.327Z,101967.73
2022-11-12T20:13:54.980Z,101964.98
2022-11-12T20:16:44.615Z,101971.29
2022-11-12T20:19:39.099Z,101977.93
2022-11-12T20:22:32.095Z,101972.11
2022-11-12T20:25:22.599Z,101973.13
2022-11-12T20:28:15.195Z,101978.75
2022-11-12T20:31:08.627Z,101979.25
2022-11-12T20:33:59.306Z,101981.45
2022-11-12T20:36:48.694Z,101983.12
2022-11-12T20:39:38.141Z,101978.50
2022-11-12T20:42:28.171Z,101987.04
2022-11-12T20:45:17.896Z,101983.43
2022-11-12T20:48:07.928Z,101988.40
2022-11-12T20:51:27.618Z,101983.61
2022-11-12T20:54:17.583Z,101983.26
2022-11-12T20:57:09.867Z,101981.19
2022-11-12T20:59:59.483Z,101985.30
2022-11-12T21:02:49.336Z,101980.49
2022-11-12T21:05:38.870Z,101977.59
2022-11-12T21:08:30.411Z,101972.63
2022-11-12T21:11:23.549Z,101974.67
2022-11-12T21:14:15.452Z,101975.66
2022-11-12T21:17:05.134Z,101979.82
2022-11-12T21:19:54.484Z,101977.77
2022-11-12T21:22:44.373Z,101975.55
2022-11-12T21:25:37.818Z,101973.33
2022-11-12T21:28:27.565Z,101977.62
2022-11-12T21:31:21.084Z,101976.77
2022-11-12T21:34:12.812Z,101980.36
2022-11-12T21:37:03.331Z,101984.97
2022-11-12T21:39:55.156Z,101985.80
2022-11-12T21:42:47.370Z,101985.65
2022-11-12T21:45:37.060Z,101985.98
2022-11-12T21:48:28.314Z,101989.26
2022-11-12T21:51:20.682Z,101983.63
2022-11-12T21:54:15.379Z,101989.42
2022-11-12T21:57:05.797Z,101987.02
2022-11-12T22:00:26.545Z,101984.77
2022-11-12T22:03:11.054Z,101983.55
2022-11-12T22:06:02.174Z,101984.58
2022-11-12T22:08:54.878Z,101987.98
2022-11-12T22:11:44.751Z,101985.40
2022-11-12T22:14:35.404Z,101984.19
2022-11-12T22:17:25.357Z,101985.17
2022-11-12T22:20:16.091Z,101980.73
2022-11-12T22:23:05.995Z,101986.55
2022-11-12T22:26:00.263Z,101992.02
2022-11-12T22:28:54.390Z,101987.05
2022-11-12T22:31:44.121Z,101983.10
2022-11-12T22:34:36.051Z,101983.42
2022-11-12T22:37:25.724Z,101976.39
2022-11-12T22:40:16.843Z,101978.06
2022-11-12T22:43:07.015Z,101981.64
2022-11-12T22:45:56.751Z,101985.73
2022-11-12T22:48:46.380Z,101984.86
2022-11-12T22:51:37.658Z,101983.11
2022-11-12T22:54:27.345Z,101983.23
2022-11-12T22:57:17.230Z,101984.19
2022-11-12T23:00:13.245Z,101978.34
2022-11-12T23:03:03.967Z,101975.40
2022-11-12T23:06:00.873Z,101975.20
2022-11-12T23:08:51.342Z,101975.05
2022-11-12T23:11:41.483Z,101976.58
2022-11-12T23:14:30.996Z,101976.89
2022-11-12T23:17:20.364Z,101980.14
2022-11-12T23:20:11.642Z,101973.45
2022-11-12T23:23:02.361Z,101976.52
2022-11-12T23:25:55.117Z,101977.88
2022-11-12T23:28:44.555Z,101975.64
2022-11-12T23:31:34.364Z,101974.23
2022-11-12T23:34:24.350Z,101975.23
2022-11-12T23:37:13.910Z,101970.94
2022-11-12T23:40:03.411Z,101973.31
2022-11-12T23:42:54.812Z,101970.39
2022-11-12T23:45:44.698Z,101971.55
2022-11-12T23:48:34.967Z,101972.08
2022-11-12T23:51:25.648Z,101970.35
2022-11-12T23:54:16.051Z,101971.69
2022-11-12T23:57:06.340Z,101969.64
2022-11-12T23:59:56.138Z,101967.89
